KEYW

Key West International Airport

Key West, Florida, USA
METAR KEYW 170353Z AUTO 09013G17KT 10SM FEW023 SCT030 29/24 A3005 RMK AO2 SLP174 T02940244
Observed Flight Rules
Oct-17 @ 03:53 UTC (9 minutes ago) Visual Flight Rules
Wind Visibility Clouds
90° at 13 knots
 Gusting to 17 knots
10 miles
  • Few at 2,300' AGL
  • Scattered at 3,000' AGL
Temperatures Readings
Current 29°C / 84°F
Dewpoint 24°C / 75°F
Humidity 74%
Altimeter 30.05" Hg
Pressure 1017.4 hPa
Elevation 5
METAR KEYW 170353Z AUTO 09013G17KT 10SM FEW023 SCT030 29/24 A3005 RMK AO2 SLP174 T02940244
Observed Flight Rules
Oct-17 @ 03:53 UTC
(9 minutes ago)
VFR
Wind Visibility
90° at 13 knots
 Gusting to 17 knots
10 miles
Clouds
  • Few at 2,300' AGL
  • Scattered at 3,000' AGL
Temperature Dewpoint
29°C / 84°F 24°C / 75°F
Humidity Altimeter Pressure
74% 30.05" Hg 1017.4 hPa